<?xml version="1.0" encoding="UTF-8" standalone="no" ?>
<gpx xmlns="http://www.topografix.com/GPX/1/1" xmlns:xsi="http://www.w3.org/2001/XMLSchema-instance" xsi:schemaLocation="http://www.topografix.com/GPX/1/1 http://www.topografix.com/GPX/1/1/gpx.xsd" version="1.1" creator="VisuGPX - https://www.visugpx.com">
  <metadata>
    <name>Char à voile St Brévin</name>
  </metadata>
  <trk>
    <name><![CDATA[Tracé actuel: 28 MAI 2020 15:02]]></name>
    <trkseg>
      <trkpt lat="47.23137" lon="-2.18139">
        <ele>76.56</ele>
        <time>2020-05-28T13:02:53Z</time>
      </trkpt>
      <trkpt lat="47.23138" lon="-2.18144">
        <ele>78.97</ele>
        <time>2020-05-28T13:03:13Z</time>
      </trkpt>
      <trkpt lat="47.23159" lon="-2.18121">
        <ele>55.89</ele>
        <time>2020-05-28T13:03:19Z</time>
      </trkpt>
      <trkpt lat="47.23191" lon="-2.18098">
        <ele>24.17</ele>
        <time>2020-05-28T13:03:35Z</time>
      </trkpt>
      <trkpt lat="47.23175" lon="-2.18117">
        <ele>19.36</ele>
        <time>2020-05-28T13:03:49Z</time>
      </trkpt>
      <trkpt lat="47.23161" lon="-2.18164">
        <ele>2.06</ele>
        <time>2020-05-28T13:04:04Z</time>
      </trkpt>
      <trkpt lat="47.23161" lon="-2.1822">
        <ele>0.14</ele>
        <time>2020-05-28T13:04:15Z</time>
      </trkpt>
      <trkpt lat="47.23148" lon="-2.18219">
        <ele>0.14</ele>
        <time>2020-05-28T13:04:21Z</time>
      </trkpt>
      <trkpt lat="47.23117" lon="-2.18169">
        <ele>-0.82</ele>
        <time>2020-05-28T13:04:37Z</time>
      </trkpt>
      <trkpt lat="47.2311" lon="-2.18163">
        <ele>-0.82</ele>
        <time>2020-05-28T13:04:50Z</time>
      </trkpt>
      <trkpt lat="47.23085" lon="-2.18152">
        <ele>-1.79</ele>
        <time>2020-05-28T13:05:01Z</time>
      </trkpt>
      <trkpt lat="47.23054" lon="-2.18155">
        <ele>-2.27</ele>
        <time>2020-05-28T13:05:10Z</time>
      </trkpt>
      <trkpt lat="47.23045" lon="-2.18159">
        <ele>-2.27</ele>
        <time>2020-05-28T13:05:12Z</time>
      </trkpt>
      <trkpt lat="47.22979" lon="-2.18178">
        <ele>-3.23</ele>
        <time>2020-05-28T13:05:25Z</time>
      </trkpt>
      <trkpt lat="47.22901" lon="-2.18165">
        <ele>-4.19</ele>
        <time>2020-05-28T13:05:34Z</time>
      </trkpt>
      <trkpt lat="47.2279" lon="-2.18109">
        <ele>-3.71</ele>
        <time>2020-05-28T13:05:46Z</time>
      </trkpt>
      <trkpt lat="47.22756" lon="-2.1806">
        <ele>-3.23</ele>
        <time>2020-05-28T13:05:51Z</time>
      </trkpt>
      <trkpt lat="47.22715" lon="-2.17986">
        <ele>-2.75</ele>
        <time>2020-05-28T13:05:59Z</time>
      </trkpt>
      <trkpt lat="47.22641" lon="-2.17937">
        <ele>-3.23</ele>
        <time>2020-05-28T13:06:08Z</time>
      </trkpt>
      <trkpt lat="47.22539" lon="-2.17872">
        <ele>-3.23</ele>
        <time>2020-05-28T13:06:19Z</time>
      </trkpt>
      <trkpt lat="47.22509" lon="-2.17811">
        <ele>-3.23</ele>
        <time>2020-05-28T13:06:25Z</time>
      </trkpt>
      <trkpt lat="47.2246" lon="-2.17753">
        <ele>-2.75</ele>
        <time>2020-05-28T13:06:33Z</time>
      </trkpt>
      <trkpt lat="47.22439" lon="-2.17729">
        <ele>-2.27</ele>
        <time>2020-05-28T13:06:37Z</time>
      </trkpt>
      <trkpt lat="47.22373" lon="-2.17659">
        <ele>-3.71</ele>
        <time>2020-05-28T13:06:47Z</time>
      </trkpt>
      <trkpt lat="47.22275" lon="-2.17575">
        <ele>-3.23</ele>
        <time>2020-05-28T13:06:59Z</time>
      </trkpt>
      <trkpt lat="47.22188" lon="-2.17494">
        <ele>-2.75</ele>
        <time>2020-05-28T13:07:10Z</time>
      </trkpt>
      <trkpt lat="47.22117" lon="-2.17416">
        <ele>-2.27</ele>
        <time>2020-05-28T13:07:18Z</time>
      </trkpt>
      <trkpt lat="47.22073" lon="-2.17389">
        <ele>-2.27</ele>
        <time>2020-05-28T13:07:23Z</time>
      </trkpt>
      <trkpt lat="47.22048" lon="-2.17374">
        <ele>-1.79</ele>
        <time>2020-05-28T13:07:26Z</time>
      </trkpt>
      <trkpt lat="47.22008" lon="-2.17359">
        <ele>-1.79</ele>
        <time>2020-05-28T13:07:31Z</time>
      </trkpt>
      <trkpt lat="47.21984" lon="-2.17386">
        <ele>-2.27</ele>
        <time>2020-05-28T13:07:36Z</time>
      </trkpt>
      <trkpt lat="47.22013" lon="-2.17418">
        <ele>-2.27</ele>
        <time>2020-05-28T13:07:41Z</time>
      </trkpt>
      <trkpt lat="47.22105" lon="-2.17509">
        <ele>-2.27</ele>
        <time>2020-05-28T13:07:54Z</time>
      </trkpt>
      <trkpt lat="47.22204" lon="-2.17586">
        <ele>-2.75</ele>
        <time>2020-05-28T13:08:07Z</time>
      </trkpt>
      <trkpt lat="47.22227" lon="-2.17609">
        <ele>-2.75</ele>
        <time>2020-05-28T13:08:10Z</time>
      </trkpt>
      <trkpt lat="47.22313" lon="-2.17654">
        <ele>-3.23</ele>
        <time>2020-05-28T13:08:19Z</time>
      </trkpt>
      <trkpt lat="47.22331" lon="-2.17701">
        <ele>-3.23</ele>
        <time>2020-05-28T13:08:24Z</time>
      </trkpt>
      <trkpt lat="47.22307" lon="-2.17697">
        <ele>-3.23</ele>
        <time>2020-05-28T13:08:28Z</time>
      </trkpt>
      <trkpt lat="47.2228" lon="-2.17664">
        <ele>-3.23</ele>
        <time>2020-05-28T13:08:34Z</time>
      </trkpt>
      <trkpt lat="47.22193" lon="-2.17581">
        <ele>-2.75</ele>
        <time>2020-05-28T13:08:52Z</time>
      </trkpt>
      <trkpt lat="47.22142" lon="-2.17548">
        <ele>-2.75</ele>
        <time>2020-05-28T13:09:01Z</time>
      </trkpt>
      <trkpt lat="47.2206" lon="-2.17472">
        <ele>-3.23</ele>
        <time>2020-05-28T13:09:13Z</time>
      </trkpt>
      <trkpt lat="47.22001" lon="-2.17407">
        <ele>-3.23</ele>
        <time>2020-05-28T13:09:20Z</time>
      </trkpt>
      <trkpt lat="47.21925" lon="-2.17271">
        <ele>-3.23</ele>
        <time>2020-05-28T13:09:30Z</time>
      </trkpt>
      <trkpt lat="47.21911" lon="-2.17239">
        <ele>-2.75</ele>
        <time>2020-05-28T13:09:32Z</time>
      </trkpt>
      <trkpt lat="47.21855" lon="-2.1716">
        <ele>-2.27</ele>
        <time>2020-05-28T13:09:39Z</time>
      </trkpt>
      <trkpt lat="47.21799" lon="-2.17091">
        <ele>-1.79</ele>
        <time>2020-05-28T13:09:47Z</time>
      </trkpt>
      <trkpt lat="47.21703" lon="-2.17006">
        <ele>-1.79</ele>
        <time>2020-05-28T13:09:59Z</time>
      </trkpt>
      <trkpt lat="47.21587" lon="-2.16918">
        <ele>-1.79</ele>
        <time>2020-05-28T13:10:11Z</time>
      </trkpt>
      <trkpt lat="47.21495" lon="-2.16862">
        <ele>-1.3</ele>
        <time>2020-05-28T13:10:21Z</time>
      </trkpt>
      <trkpt lat="47.21411" lon="-2.16793">
        <ele>-1.79</ele>
        <time>2020-05-28T13:10:31Z</time>
      </trkpt>
      <trkpt lat="47.21399" lon="-2.16742">
        <ele>-1.79</ele>
        <time>2020-05-28T13:10:36Z</time>
      </trkpt>
      <trkpt lat="47.21423" lon="-2.16753">
        <ele>-1.3</ele>
        <time>2020-05-28T13:10:41Z</time>
      </trkpt>
      <trkpt lat="47.21431" lon="-2.16794">
        <ele>-1.79</ele>
        <time>2020-05-28T13:10:46Z</time>
      </trkpt>
      <trkpt lat="47.21479" lon="-2.16903">
        <ele>-1.79</ele>
        <time>2020-05-28T13:11:00Z</time>
      </trkpt>
      <trkpt lat="47.21483" lon="-2.16912">
        <ele>-1.79</ele>
        <time>2020-05-28T13:11:01Z</time>
      </trkpt>
      <trkpt lat="47.21532" lon="-2.17001">
        <ele>-1.79</ele>
        <time>2020-05-28T13:11:10Z</time>
      </trkpt>
      <trkpt lat="47.21566" lon="-2.16997">
        <ele>-2.27</ele>
        <time>2020-05-28T13:11:15Z</time>
      </trkpt>
      <trkpt lat="47.21562" lon="-2.16977">
        <ele>-2.27</ele>
        <time>2020-05-28T13:11:18Z</time>
      </trkpt>
      <trkpt lat="47.215" lon="-2.16922">
        <ele>-1.79</ele>
        <time>2020-05-28T13:11:28Z</time>
      </trkpt>
      <trkpt lat="47.21475" lon="-2.16883">
        <ele>-2.27</ele>
        <time>2020-05-28T13:11:34Z</time>
      </trkpt>
      <trkpt lat="47.21489" lon="-2.16889">
        <ele>-2.27</ele>
        <time>2020-05-28T13:11:38Z</time>
      </trkpt>
      <trkpt lat="47.21501" lon="-2.16897">
        <ele>-2.27</ele>
        <time>2020-05-28T13:11:51Z</time>
      </trkpt>
      <trkpt lat="47.2151" lon="-2.16902">
        <ele>-3.23</ele>
        <time>2020-05-28T13:12:11Z</time>
      </trkpt>
      <trkpt lat="47.21528" lon="-2.16907">
        <ele>-3.23</ele>
        <time>2020-05-28T13:12:32Z</time>
      </trkpt>
      <trkpt lat="47.21543" lon="-2.16907">
        <ele>-2.75</ele>
        <time>2020-05-28T13:12:42Z</time>
      </trkpt>
      <trkpt lat="47.21559" lon="-2.16912">
        <ele>-2.75</ele>
        <time>2020-05-28T13:12:58Z</time>
      </trkpt>
      <trkpt lat="47.21594" lon="-2.16943">
        <ele>-2.75</ele>
        <time>2020-05-28T13:13:15Z</time>
      </trkpt>
      <trkpt lat="47.21657" lon="-2.16993">
        <ele>-2.75</ele>
        <time>2020-05-28T13:13:26Z</time>
      </trkpt>
      <trkpt lat="47.21702" lon="-2.17036">
        <ele>-2.75</ele>
        <time>2020-05-28T13:13:33Z</time>
      </trkpt>
      <trkpt lat="47.21767" lon="-2.17064">
        <ele>-2.75</ele>
        <time>2020-05-28T13:13:44Z</time>
      </trkpt>
      <trkpt lat="47.21778" lon="-2.17066">
        <ele>-2.75</ele>
        <time>2020-05-28T13:13:46Z</time>
      </trkpt>
      <trkpt lat="47.21832" lon="-2.17128">
        <ele>-2.27</ele>
        <time>2020-05-28T13:13:57Z</time>
      </trkpt>
      <trkpt lat="47.2192" lon="-2.17241">
        <ele>-2.75</ele>
        <time>2020-05-28T13:14:11Z</time>
      </trkpt>
      <trkpt lat="47.22002" lon="-2.17346">
        <ele>-3.23</ele>
        <time>2020-05-28T13:14:22Z</time>
      </trkpt>
      <trkpt lat="47.22012" lon="-2.17362">
        <ele>-3.23</ele>
        <time>2020-05-28T13:14:24Z</time>
      </trkpt>
      <trkpt lat="47.22102" lon="-2.17492">
        <ele>-4.19</ele>
        <time>2020-05-28T13:14:39Z</time>
      </trkpt>
      <trkpt lat="47.22144" lon="-2.17558">
        <ele>-4.67</ele>
        <time>2020-05-28T13:14:45Z</time>
      </trkpt>
      <trkpt lat="47.22178" lon="-2.17572">
        <ele>-4.67</ele>
        <time>2020-05-28T13:14:49Z</time>
      </trkpt>
      <trkpt lat="47.22275" lon="-2.17619">
        <ele>-3.71</ele>
        <time>2020-05-28T13:15:00Z</time>
      </trkpt>
      <trkpt lat="47.22294" lon="-2.17652">
        <ele>-4.19</ele>
        <time>2020-05-28T13:15:04Z</time>
      </trkpt>
      <trkpt lat="47.22277" lon="-2.17645">
        <ele>-5.15</ele>
        <time>2020-05-28T13:15:09Z</time>
      </trkpt>
      <trkpt lat="47.22231" lon="-2.17612">
        <ele>-5.63</ele>
        <time>2020-05-28T13:15:17Z</time>
      </trkpt>
      <trkpt lat="47.22133" lon="-2.17498">
        <ele>-4.67</ele>
        <time>2020-05-28T13:15:31Z</time>
      </trkpt>
      <trkpt lat="47.22035" lon="-2.17397">
        <ele>-4.19</ele>
        <time>2020-05-28T13:15:44Z</time>
      </trkpt>
      <trkpt lat="47.21975" lon="-2.17275">
        <ele>-3.23</ele>
        <time>2020-05-28T13:15:55Z</time>
      </trkpt>
      <trkpt lat="47.21967" lon="-2.17252">
        <ele>-3.23</ele>
        <time>2020-05-28T13:15:57Z</time>
      </trkpt>
      <trkpt lat="47.2198" lon="-2.17218">
        <ele>-2.75</ele>
        <time>2020-05-28T13:16:02Z</time>
      </trkpt>
      <trkpt lat="47.21991" lon="-2.17225">
        <ele>-2.75</ele>
        <time>2020-05-28T13:16:04Z</time>
      </trkpt>
      <trkpt lat="47.22027" lon="-2.17259">
        <ele>-2.75</ele>
        <time>2020-05-28T13:16:11Z</time>
      </trkpt>
      <trkpt lat="47.22118" lon="-2.17325">
        <ele>-2.75</ele>
        <time>2020-05-28T13:16:22Z</time>
      </trkpt>
      <trkpt lat="47.22209" lon="-2.17413">
        <ele>-2.27</ele>
        <time>2020-05-28T13:16:30Z</time>
      </trkpt>
      <trkpt lat="47.22269" lon="-2.17486">
        <ele>-2.27</ele>
        <time>2020-05-28T13:16:36Z</time>
      </trkpt>
      <trkpt lat="47.22334" lon="-2.17545">
        <ele>-2.27</ele>
        <time>2020-05-28T13:16:44Z</time>
      </trkpt>
      <trkpt lat="47.22367" lon="-2.17575">
        <ele>-2.27</ele>
        <time>2020-05-28T13:16:49Z</time>
      </trkpt>
      <trkpt lat="47.22426" lon="-2.17664">
        <ele>-2.75</ele>
        <time>2020-05-28T13:17:00Z</time>
      </trkpt>
      <trkpt lat="47.22452" lon="-2.17697">
        <ele>-3.23</ele>
        <time>2020-05-28T13:17:04Z</time>
      </trkpt>
      <trkpt lat="47.22528" lon="-2.17822">
        <ele>-3.71</ele>
        <time>2020-05-28T13:17:15Z</time>
      </trkpt>
      <trkpt lat="47.22638" lon="-2.17918">
        <ele>-3.71</ele>
        <time>2020-05-28T13:17:26Z</time>
      </trkpt>
      <trkpt lat="47.22696" lon="-2.17969">
        <ele>-4.19</ele>
        <time>2020-05-28T13:17:33Z</time>
      </trkpt>
      <trkpt lat="47.22752" lon="-2.17986">
        <ele>-4.19</ele>
        <time>2020-05-28T13:17:40Z</time>
      </trkpt>
      <trkpt lat="47.22758" lon="-2.17994">
        <ele>-4.19</ele>
        <time>2020-05-28T13:17:41Z</time>
      </trkpt>
      <trkpt lat="47.22851" lon="-2.18103">
        <ele>-4.19</ele>
        <time>2020-05-28T13:17:53Z</time>
      </trkpt>
      <trkpt lat="47.2286" lon="-2.18111">
        <ele>-4.19</ele>
        <time>2020-05-28T13:17:54Z</time>
      </trkpt>
      <trkpt lat="47.22892" lon="-2.18094">
        <ele>-3.71</ele>
        <time>2020-05-28T13:17:59Z</time>
      </trkpt>
      <trkpt lat="47.22883" lon="-2.18082">
        <ele>-3.71</ele>
        <time>2020-05-28T13:18:01Z</time>
      </trkpt>
      <trkpt lat="47.22796" lon="-2.18025">
        <ele>-3.71</ele>
        <time>2020-05-28T13:18:15Z</time>
      </trkpt>
      <trkpt lat="47.22779" lon="-2.18012">
        <ele>-3.71</ele>
        <time>2020-05-28T13:18:17Z</time>
      </trkpt>
      <trkpt lat="47.22674" lon="-2.1791">
        <ele>-3.71</ele>
        <time>2020-05-28T13:18:31Z</time>
      </trkpt>
      <trkpt lat="47.22626" lon="-2.17861">
        <ele>-3.71</ele>
        <time>2020-05-28T13:18:37Z</time>
      </trkpt>
      <trkpt lat="47.22576" lon="-2.1783">
        <ele>-4.19</ele>
        <time>2020-05-28T13:18:42Z</time>
      </trkpt>
      <trkpt lat="47.22477" lon="-2.17729">
        <ele>-4.19</ele>
        <time>2020-05-28T13:18:53Z</time>
      </trkpt>
      <trkpt lat="47.22381" lon="-2.17637">
        <ele>-4.19</ele>
        <time>2020-05-28T13:19:02Z</time>
      </trkpt>
      <trkpt lat="47.22327" lon="-2.17573">
        <ele>-3.71</ele>
        <time>2020-05-28T13:19:07Z</time>
      </trkpt>
      <trkpt lat="47.22273" lon="-2.17527">
        <ele>-3.23</ele>
        <time>2020-05-28T13:19:12Z</time>
      </trkpt>
      <trkpt lat="47.22171" lon="-2.17444">
        <ele>-3.23</ele>
        <time>2020-05-28T13:19:23Z</time>
      </trkpt>
      <trkpt lat="47.22163" lon="-2.17437">
        <ele>-2.75</ele>
        <time>2020-05-28T13:19:24Z</time>
      </trkpt>
      <trkpt lat="47.22059" lon="-2.17308">
        <ele>-2.75</ele>
        <time>2020-05-28T13:19:38Z</time>
      </trkpt>
      <trkpt lat="47.22039" lon="-2.17283">
        <ele>-2.75</ele>
        <time>2020-05-28T13:19:41Z</time>
      </trkpt>
      <trkpt lat="47.21905" lon="-2.17175">
        <ele>-2.75</ele>
        <time>2020-05-28T13:19:58Z</time>
      </trkpt>
      <trkpt lat="47.21815" lon="-2.17108">
        <ele>-2.75</ele>
        <time>2020-05-28T13:20:09Z</time>
      </trkpt>
      <trkpt lat="47.21806" lon="-2.17067">
        <ele>-2.75</ele>
        <time>2020-05-28T13:20:14Z</time>
      </trkpt>
      <trkpt lat="47.21829" lon="-2.17077">
        <ele>-2.27</ele>
        <time>2020-05-28T13:20:18Z</time>
      </trkpt>
      <trkpt lat="47.21842" lon="-2.17094">
        <ele>-2.27</ele>
        <time>2020-05-28T13:20:21Z</time>
      </trkpt>
      <trkpt lat="47.21918" lon="-2.17184">
        <ele>-2.27</ele>
        <time>2020-05-28T13:20:40Z</time>
      </trkpt>
      <trkpt lat="47.21926" lon="-2.17194">
        <ele>-2.27</ele>
        <time>2020-05-28T13:20:43Z</time>
      </trkpt>
      <trkpt lat="47.21956" lon="-2.17205">
        <ele>-2.27</ele>
        <time>2020-05-28T13:20:55Z</time>
      </trkpt>
      <trkpt lat="47.21995" lon="-2.17249">
        <ele>-2.27</ele>
        <time>2020-05-28T13:21:05Z</time>
      </trkpt>
      <trkpt lat="47.22058" lon="-2.17322">
        <ele>-2.75</ele>
        <time>2020-05-28T13:21:19Z</time>
      </trkpt>
      <trkpt lat="47.2213" lon="-2.17416">
        <ele>-2.75</ele>
        <time>2020-05-28T13:21:33Z</time>
      </trkpt>
      <trkpt lat="47.22233" lon="-2.17509">
        <ele>-2.27</ele>
        <time>2020-05-28T13:21:45Z</time>
      </trkpt>
      <trkpt lat="47.22328" lon="-2.17579">
        <ele>-2.27</ele>
        <time>2020-05-28T13:21:58Z</time>
      </trkpt>
      <trkpt lat="47.22343" lon="-2.17592">
        <ele>-2.27</ele>
        <time>2020-05-28T13:22:00Z</time>
      </trkpt>
      <trkpt lat="47.22365" lon="-2.1762">
        <ele>-2.27</ele>
        <time>2020-05-28T13:22:03Z</time>
      </trkpt>
      <trkpt lat="47.22421" lon="-2.17652">
        <ele>-2.27</ele>
        <time>2020-05-28T13:22:09Z</time>
      </trkpt>
      <trkpt lat="47.22528" lon="-2.17742">
        <ele>-2.27</ele>
        <time>2020-05-28T13:22:22Z</time>
      </trkpt>
      <trkpt lat="47.22623" lon="-2.17836">
        <ele>-2.27</ele>
        <time>2020-05-28T13:22:34Z</time>
      </trkpt>
      <trkpt lat="47.22741" lon="-2.17972">
        <ele>-2.75</ele>
        <time>2020-05-28T13:22:49Z</time>
      </trkpt>
      <trkpt lat="47.22856" lon="-2.18071">
        <ele>-2.75</ele>
        <time>2020-05-28T13:23:03Z</time>
      </trkpt>
      <trkpt lat="47.22956" lon="-2.18162">
        <ele>-2.75</ele>
        <time>2020-05-28T13:23:16Z</time>
      </trkpt>
      <trkpt lat="47.23011" lon="-2.18213">
        <ele>-2.75</ele>
        <time>2020-05-28T13:23:22Z</time>
      </trkpt>
      <trkpt lat="47.23053" lon="-2.18217">
        <ele>-2.75</ele>
        <time>2020-05-28T13:23:27Z</time>
      </trkpt>
      <trkpt lat="47.2312" lon="-2.18196">
        <ele>-2.27</ele>
        <time>2020-05-28T13:23:39Z</time>
      </trkpt>
      <trkpt lat="47.23128" lon="-2.18167">
        <ele>-1.79</ele>
        <time>2020-05-28T13:23:46Z</time>
      </trkpt>
      <trkpt lat="47.23126" lon="-2.18165">
        <ele>-1.79</ele>
        <time>2020-05-28T13:23:47Z</time>
      </trkpt>
      <trkpt lat="47.23069" lon="-2.1815">
        <ele>-1.79</ele>
        <time>2020-05-28T13:24:11Z</time>
      </trkpt>
      <trkpt lat="47.23039" lon="-2.18126">
        <ele>-1.79</ele>
        <time>2020-05-28T13:24:22Z</time>
      </trkpt>
      <trkpt lat="47.22974" lon="-2.18088">
        <ele>-2.27</ele>
        <time>2020-05-28T13:24:33Z</time>
      </trkpt>
      <trkpt lat="47.22937" lon="-2.18065">
        <ele>-1.79</ele>
        <time>2020-05-28T13:24:38Z</time>
      </trkpt>
      <trkpt lat="47.22845" lon="-2.17971">
        <ele>-0.82</ele>
        <time>2020-05-28T13:24:51Z</time>
      </trkpt>
      <trkpt lat="47.22747" lon="-2.17886">
        <ele>-0.34</ele>
        <time>2020-05-28T13:25:04Z</time>
      </trkpt>
      <trkpt lat="47.22605" lon="-2.17783">
        <ele>-0.34</ele>
        <time>2020-05-28T13:25:21Z</time>
      </trkpt>
      <trkpt lat="47.22557" lon="-2.17749">
        <ele>-0.34</ele>
        <time>2020-05-28T13:25:26Z</time>
      </trkpt>
      <trkpt lat="47.22518" lon="-2.17706">
        <ele>-0.34</ele>
        <time>2020-05-28T13:25:30Z</time>
      </trkpt>
      <trkpt lat="47.22408" lon="-2.1761">
        <ele>-0.34</ele>
        <time>2020-05-28T13:25:42Z</time>
      </trkpt>
      <trkpt lat="47.22275" lon="-2.17528">
        <ele>0.14</ele>
        <time>2020-05-28T13:25:55Z</time>
      </trkpt>
      <trkpt lat="47.22236" lon="-2.17497">
        <ele>0.14</ele>
        <time>2020-05-28T13:25:59Z</time>
      </trkpt>
      <trkpt lat="47.22195" lon="-2.17433">
        <ele>0.14</ele>
        <time>2020-05-28T13:26:05Z</time>
      </trkpt>
      <trkpt lat="47.22126" lon="-2.17369">
        <ele>0.14</ele>
        <time>2020-05-28T13:26:13Z</time>
      </trkpt>
      <trkpt lat="47.22083" lon="-2.1734">
        <ele>0.14</ele>
        <time>2020-05-28T13:26:18Z</time>
      </trkpt>
      <trkpt lat="47.21993" lon="-2.17268">
        <ele>0.62</ele>
        <time>2020-05-28T13:26:30Z</time>
      </trkpt>
      <trkpt lat="47.21873" lon="-2.17173">
        <ele>0.14</ele>
        <time>2020-05-28T13:26:45Z</time>
      </trkpt>
      <trkpt lat="47.21762" lon="-2.1706">
        <ele>0.14</ele>
        <time>2020-05-28T13:26:58Z</time>
      </trkpt>
      <trkpt lat="47.21728" lon="-2.17024">
        <ele>0.62</ele>
        <time>2020-05-28T13:27:02Z</time>
      </trkpt>
      <trkpt lat="47.21618" lon="-2.1694">
        <ele>1.1</ele>
        <time>2020-05-28T13:27:16Z</time>
      </trkpt>
      <trkpt lat="47.21508" lon="-2.16862">
        <ele>0.62</ele>
        <time>2020-05-28T13:27:30Z</time>
      </trkpt>
      <trkpt lat="47.21507" lon="-2.16827">
        <ele>1.1</ele>
        <time>2020-05-28T13:27:35Z</time>
      </trkpt>
      <trkpt lat="47.21518" lon="-2.16834">
        <ele>1.1</ele>
        <time>2020-05-28T13:27:37Z</time>
      </trkpt>
      <trkpt lat="47.21588" lon="-2.16894">
        <ele>0.62</ele>
        <time>2020-05-28T13:27:52Z</time>
      </trkpt>
      <trkpt lat="47.21596" lon="-2.169">
        <ele>0.62</ele>
        <time>2020-05-28T13:27:54Z</time>
      </trkpt>
      <trkpt lat="47.21627" lon="-2.16899">
        <ele>1.1</ele>
        <time>2020-05-28T13:28:03Z</time>
      </trkpt>
      <trkpt lat="47.21656" lon="-2.16924">
        <ele>0.62</ele>
        <time>2020-05-28T13:28:21Z</time>
      </trkpt>
      <trkpt lat="47.21711" lon="-2.16983">
        <ele>-0.34</ele>
        <time>2020-05-28T13:28:40Z</time>
      </trkpt>
      <trkpt lat="47.21749" lon="-2.17027">
        <ele>-0.34</ele>
        <time>2020-05-28T13:28:50Z</time>
      </trkpt>
      <trkpt lat="47.21828" lon="-2.17099">
        <ele>-0.34</ele>
        <time>2020-05-28T13:29:05Z</time>
      </trkpt>
      <trkpt lat="47.21907" lon="-2.17203">
        <ele>0.14</ele>
        <time>2020-05-28T13:29:21Z</time>
      </trkpt>
      <trkpt lat="47.21948" lon="-2.17241">
        <ele>0.14</ele>
        <time>2020-05-28T13:29:27Z</time>
      </trkpt>
      <trkpt lat="47.22048" lon="-2.17298">
        <ele>0.14</ele>
        <time>2020-05-28T13:29:39Z</time>
      </trkpt>
      <trkpt lat="47.22161" lon="-2.17402">
        <ele>0.14</ele>
        <time>2020-05-28T13:29:53Z</time>
      </trkpt>
      <trkpt lat="47.22264" lon="-2.17493">
        <ele>0.14</ele>
        <time>2020-05-28T13:30:07Z</time>
      </trkpt>
      <trkpt lat="47.22337" lon="-2.17559">
        <ele>0.14</ele>
        <time>2020-05-28T13:30:19Z</time>
      </trkpt>
      <trkpt lat="47.22355" lon="-2.1757">
        <ele>0.14</ele>
        <time>2020-05-28T13:30:22Z</time>
      </trkpt>
      <trkpt lat="47.22384" lon="-2.17594">
        <ele>0.14</ele>
        <time>2020-05-28T13:30:27Z</time>
      </trkpt>
      <trkpt lat="47.22446" lon="-2.17683">
        <ele>0.14</ele>
        <time>2020-05-28T13:30:37Z</time>
      </trkpt>
      <trkpt lat="47.22547" lon="-2.17791">
        <ele>-0.82</ele>
        <time>2020-05-28T13:30:48Z</time>
      </trkpt>
      <trkpt lat="47.22587" lon="-2.17819">
        <ele>-0.34</ele>
        <time>2020-05-28T13:30:52Z</time>
      </trkpt>
      <trkpt lat="47.22711" lon="-2.1795">
        <ele>-0.82</ele>
        <time>2020-05-28T13:31:07Z</time>
      </trkpt>
      <trkpt lat="47.22827" lon="-2.18098">
        <ele>-1.79</ele>
        <time>2020-05-28T13:31:22Z</time>
      </trkpt>
      <trkpt lat="47.22876" lon="-2.18155">
        <ele>-1.79</ele>
        <time>2020-05-28T13:31:28Z</time>
      </trkpt>
      <trkpt lat="47.2296" lon="-2.18202">
        <ele>-2.75</ele>
        <time>2020-05-28T13:31:37Z</time>
      </trkpt>
      <trkpt lat="47.23006" lon="-2.18194">
        <ele>-2.75</ele>
        <time>2020-05-28T13:31:44Z</time>
      </trkpt>
      <trkpt lat="47.23013" lon="-2.18171">
        <ele>-2.75</ele>
        <time>2020-05-28T13:31:49Z</time>
      </trkpt>
      <trkpt lat="47.2299" lon="-2.18159">
        <ele>-2.75</ele>
        <time>2020-05-28T13:32:01Z</time>
      </trkpt>
      <trkpt lat="47.22976" lon="-2.18149">
        <ele>-3.23</ele>
        <time>2020-05-28T13:32:24Z</time>
      </trkpt>
      <trkpt lat="47.22963" lon="-2.18146">
        <ele>-3.71</ele>
        <time>2020-05-28T13:32:42Z</time>
      </trkpt>
      <trkpt lat="47.2292" lon="-2.18123">
        <ele>-2.75</ele>
        <time>2020-05-28T13:33:03Z</time>
      </trkpt>
      <trkpt lat="47.22904" lon="-2.18112">
        <ele>-3.23</ele>
        <time>2020-05-28T13:33:20Z</time>
      </trkpt>
      <trkpt lat="47.2288" lon="-2.18096">
        <ele>-3.71</ele>
        <time>2020-05-28T13:33:34Z</time>
      </trkpt>
      <trkpt lat="47.22842" lon="-2.18073">
        <ele>-3.71</ele>
        <time>2020-05-28T13:33:53Z</time>
      </trkpt>
      <trkpt lat="47.22795" lon="-2.18038">
        <ele>-2.75</ele>
        <time>2020-05-28T13:34:11Z</time>
      </trkpt>
      <trkpt lat="47.22744" lon="-2.17998">
        <ele>-2.27</ele>
        <time>2020-05-28T13:34:31Z</time>
      </trkpt>
      <trkpt lat="47.22702" lon="-2.17958">
        <ele>-2.27</ele>
        <time>2020-05-28T13:34:53Z</time>
      </trkpt>
      <trkpt lat="47.22652" lon="-2.17927">
        <ele>-2.27</ele>
        <time>2020-05-28T13:35:09Z</time>
      </trkpt>
      <trkpt lat="47.22631" lon="-2.17886">
        <ele>-2.27</ele>
        <time>2020-05-28T13:35:17Z</time>
      </trkpt>
      <trkpt lat="47.2263" lon="-2.17865">
        <ele>-1.79</ele>
        <time>2020-05-28T13:35:29Z</time>
      </trkpt>
      <trkpt lat="47.22629" lon="-2.17865">
        <ele>-1.3</ele>
        <time>2020-05-28T13:36:03Z</time>
      </trkpt>
      <trkpt lat="47.22629" lon="-2.17865">
        <ele>-0.82</ele>
        <time>2020-05-28T13:36:31Z</time>
      </trkpt>
      <trkpt lat="47.22629" lon="-2.17865">
        <ele>-0.82</ele>
        <time>2020-05-28T13:37:08Z</time>
      </trkpt>
      <trkpt lat="47.22629" lon="-2.17865">
        <ele>-0.82</ele>
        <time>2020-05-28T13:37:34Z</time>
      </trkpt>
      <trkpt lat="47.22628" lon="-2.17862">
        <ele>-0.82</ele>
        <time>2020-05-28T13:38:02Z</time>
      </trkpt>
      <trkpt lat="47.22613" lon="-2.17827">
        <ele>-0.82</ele>
        <time>2020-05-28T13:38:19Z</time>
      </trkpt>
      <trkpt lat="47.22565" lon="-2.17768">
        <ele>-0.82</ele>
        <time>2020-05-28T13:38:40Z</time>
      </trkpt>
      <trkpt lat="47.22557" lon="-2.17761">
        <ele>-0.82</ele>
        <time>2020-05-28T13:38:43Z</time>
      </trkpt>
      <trkpt lat="47.22553" lon="-2.17779">
        <ele>-0.82</ele>
        <time>2020-05-28T13:38:50Z</time>
      </trkpt>
      <trkpt lat="47.22594" lon="-2.17797">
        <ele>-0.82</ele>
        <time>2020-05-28T13:39:09Z</time>
      </trkpt>
      <trkpt lat="47.22625" lon="-2.17802">
        <ele>0.14</ele>
        <time>2020-05-28T13:39:34Z</time>
      </trkpt>
      <trkpt lat="47.22634" lon="-2.17806">
        <ele>-0.82</ele>
        <time>2020-05-28T13:39:56Z</time>
      </trkpt>
      <trkpt lat="47.22677" lon="-2.17819">
        <ele>0.14</ele>
        <time>2020-05-28T13:40:22Z</time>
      </trkpt>
      <trkpt lat="47.22686" lon="-2.17823">
        <ele>0.14</ele>
        <time>2020-05-28T13:40:42Z</time>
      </trkpt>
      <trkpt lat="47.22687" lon="-2.17824">
        <ele>0.14</ele>
        <time>2020-05-28T13:41:17Z</time>
      </trkpt>
      <trkpt lat="47.22702" lon="-2.17837">
        <ele>0.62</ele>
        <time>2020-05-28T13:41:40Z</time>
      </trkpt>
      <trkpt lat="47.2274" lon="-2.17879">
        <ele>0.62</ele>
        <time>2020-05-28T13:41:59Z</time>
      </trkpt>
      <trkpt lat="47.22786" lon="-2.17919">
        <ele>0.62</ele>
        <time>2020-05-28T13:42:19Z</time>
      </trkpt>
      <trkpt lat="47.22851" lon="-2.17979">
        <ele>0.62</ele>
        <time>2020-05-28T13:42:49Z</time>
      </trkpt>
      <trkpt lat="47.22908" lon="-2.18034">
        <ele>1.1</ele>
        <time>2020-05-28T13:43:11Z</time>
      </trkpt>
      <trkpt lat="47.22952" lon="-2.1808">
        <ele>1.1</ele>
        <time>2020-05-28T13:43:27Z</time>
      </trkpt>
      <trkpt lat="47.22962" lon="-2.18104">
        <ele>0.62</ele>
        <time>2020-05-28T13:43:32Z</time>
      </trkpt>
      <trkpt lat="47.22965" lon="-2.18122">
        <ele>0.62</ele>
        <time>2020-05-28T13:43:36Z</time>
      </trkpt>
      <trkpt lat="47.22957" lon="-2.18129">
        <ele>0.14</ele>
        <time>2020-05-28T13:43:42Z</time>
      </trkpt>
      <trkpt lat="47.22925" lon="-2.1811">
        <ele>-0.82</ele>
        <time>2020-05-28T13:44:04Z</time>
      </trkpt>
      <trkpt lat="47.22876" lon="-2.18074">
        <ele>-0.34</ele>
        <time>2020-05-28T13:44:25Z</time>
      </trkpt>
      <trkpt lat="47.22812" lon="-2.18022">
        <ele>-0.34</ele>
        <time>2020-05-28T13:44:43Z</time>
      </trkpt>
      <trkpt lat="47.22748" lon="-2.17969">
        <ele>-0.34</ele>
        <time>2020-05-28T13:45:03Z</time>
      </trkpt>
      <trkpt lat="47.22681" lon="-2.17912">
        <ele>-0.82</ele>
        <time>2020-05-28T13:45:26Z</time>
      </trkpt>
      <trkpt lat="47.22655" lon="-2.17888">
        <ele>-0.82</ele>
        <time>2020-05-28T13:45:43Z</time>
      </trkpt>
      <trkpt lat="47.22637" lon="-2.17872">
        <ele>-1.79</ele>
        <time>2020-05-28T13:46:09Z</time>
      </trkpt>
      <trkpt lat="47.22634" lon="-2.17868">
        <ele>-1.79</ele>
        <time>2020-05-28T13:46:31Z</time>
      </trkpt>
      <trkpt lat="47.22633" lon="-2.17868">
        <ele>-1.79</ele>
        <time>2020-05-28T13:47:01Z</time>
      </trkpt>
      <trkpt lat="47.22623" lon="-2.17861">
        <ele>-1.79</ele>
        <time>2020-05-28T13:47:24Z</time>
      </trkpt>
      <trkpt lat="47.22582" lon="-2.17833">
        <ele>-1.79</ele>
        <time>2020-05-28T13:47:37Z</time>
      </trkpt>
      <trkpt lat="47.22566" lon="-2.17826">
        <ele>-1.79</ele>
        <time>2020-05-28T13:47:41Z</time>
      </trkpt>
      <trkpt lat="47.22503" lon="-2.17775">
        <ele>-2.27</ele>
        <time>2020-05-28T13:47:54Z</time>
      </trkpt>
      <trkpt lat="47.22454" lon="-2.17727">
        <ele>-2.27</ele>
        <time>2020-05-28T13:48:03Z</time>
      </trkpt>
      <trkpt lat="47.22412" lon="-2.17691">
        <ele>-2.27</ele>
        <time>2020-05-28T13:48:14Z</time>
      </trkpt>
      <trkpt lat="47.22413" lon="-2.1767">
        <ele>-2.27</ele>
        <time>2020-05-28T13:48:20Z</time>
      </trkpt>
      <trkpt lat="47.22421" lon="-2.17674">
        <ele>-2.27</ele>
        <time>2020-05-28T13:48:22Z</time>
      </trkpt>
      <trkpt lat="47.22446" lon="-2.17693">
        <ele>-1.79</ele>
        <time>2020-05-28T13:48:27Z</time>
      </trkpt>
      <trkpt lat="47.2247" lon="-2.17721">
        <ele>-1.79</ele>
        <time>2020-05-28T13:48:33Z</time>
      </trkpt>
      <trkpt lat="47.22552" lon="-2.17781">
        <ele>-0.82</ele>
        <time>2020-05-28T13:48:48Z</time>
      </trkpt>
      <trkpt lat="47.22617" lon="-2.17837">
        <ele>0.14</ele>
        <time>2020-05-28T13:49:01Z</time>
      </trkpt>
      <trkpt lat="47.22705" lon="-2.17905">
        <ele>0.14</ele>
        <time>2020-05-28T13:49:15Z</time>
      </trkpt>
      <trkpt lat="47.22737" lon="-2.17948">
        <ele>0.62</ele>
        <time>2020-05-28T13:49:21Z</time>
      </trkpt>
      <trkpt lat="47.22797" lon="-2.17982">
        <ele>0.62</ele>
        <time>2020-05-28T13:49:30Z</time>
      </trkpt>
      <trkpt lat="47.22813" lon="-2.17996">
        <ele>0.62</ele>
        <time>2020-05-28T13:49:34Z</time>
      </trkpt>
      <trkpt lat="47.22878" lon="-2.18064">
        <ele>0.62</ele>
        <time>2020-05-28T13:49:49Z</time>
      </trkpt>
      <trkpt lat="47.22935" lon="-2.18126">
        <ele>0.14</ele>
        <time>2020-05-28T13:50:05Z</time>
      </trkpt>
      <trkpt lat="47.22952" lon="-2.18141">
        <ele>-0.34</ele>
        <time>2020-05-28T13:50:08Z</time>
      </trkpt>
      <trkpt lat="47.23013" lon="-2.18178">
        <ele>-0.34</ele>
        <time>2020-05-28T13:50:17Z</time>
      </trkpt>
      <trkpt lat="47.23025" lon="-2.18183">
        <ele>0.14</ele>
        <time>2020-05-28T13:50:19Z</time>
      </trkpt>
      <trkpt lat="47.23083" lon="-2.18225">
        <ele>0.14</ele>
        <time>2020-05-28T13:50:30Z</time>
      </trkpt>
      <trkpt lat="47.2313" lon="-2.18229">
        <ele>0.62</ele>
        <time>2020-05-28T13:50:40Z</time>
      </trkpt>
      <trkpt lat="47.2318" lon="-2.18244">
        <ele>0.62</ele>
        <time>2020-05-28T13:50:53Z</time>
      </trkpt>
      <trkpt lat="47.23201" lon="-2.18259">
        <ele>0.62</ele>
        <time>2020-05-28T13:50:57Z</time>
      </trkpt>
      <trkpt lat="47.23209" lon="-2.18296">
        <ele>0.62</ele>
        <time>2020-05-28T13:51:03Z</time>
      </trkpt>
      <trkpt lat="47.23176" lon="-2.18298">
        <ele>0.14</ele>
        <time>2020-05-28T13:51:10Z</time>
      </trkpt>
      <trkpt lat="47.2312" lon="-2.18261">
        <ele>-0.82</ele>
        <time>2020-05-28T13:51:24Z</time>
      </trkpt>
      <trkpt lat="47.231" lon="-2.18233">
        <ele>-1.3</ele>
        <time>2020-05-28T13:51:37Z</time>
      </trkpt>
      <trkpt lat="47.23066" lon="-2.18205">
        <ele>-1.3</ele>
        <time>2020-05-28T13:52:00Z</time>
      </trkpt>
      <trkpt lat="47.2306" lon="-2.18202">
        <ele>-2.27</ele>
        <time>2020-05-28T13:52:22Z</time>
      </trkpt>
      <trkpt lat="47.2306" lon="-2.18201">
        <ele>-2.27</ele>
        <time>2020-05-28T13:52:56Z</time>
      </trkpt>
      <trkpt lat="47.23054" lon="-2.18197">
        <ele>-2.27</ele>
        <time>2020-05-28T13:53:19Z</time>
      </trkpt>
      <trkpt lat="47.2304" lon="-2.18191">
        <ele>-2.27</ele>
        <time>2020-05-28T13:53:33Z</time>
      </trkpt>
      <trkpt lat="47.23037" lon="-2.18193">
        <ele>-1.79</ele>
        <time>2020-05-28T13:53:39Z</time>
      </trkpt>
      <trkpt lat="47.23024" lon="-2.182">
        <ele>-2.27</ele>
        <time>2020-05-28T13:53:46Z</time>
      </trkpt>
      <trkpt lat="47.22992" lon="-2.1818">
        <ele>-2.27</ele>
        <time>2020-05-28T13:53:53Z</time>
      </trkpt>
      <trkpt lat="47.22979" lon="-2.18176">
        <ele>-2.75</ele>
        <time>2020-05-28T13:53:55Z</time>
      </trkpt>
      <trkpt lat="47.22888" lon="-2.18108">
        <ele>-2.27</ele>
        <time>2020-05-28T13:54:08Z</time>
      </trkpt>
      <trkpt lat="47.22803" lon="-2.18041">
        <ele>-1.79</ele>
        <time>2020-05-28T13:54:21Z</time>
      </trkpt>
      <trkpt lat="47.22714" lon="-2.17965">
        <ele>-1.79</ele>
        <time>2020-05-28T13:54:35Z</time>
      </trkpt>
      <trkpt lat="47.22666" lon="-2.17895">
        <ele>-2.27</ele>
        <time>2020-05-28T13:54:42Z</time>
      </trkpt>
      <trkpt lat="47.22555" lon="-2.17796">
        <ele>-2.27</ele>
        <time>2020-05-28T13:54:53Z</time>
      </trkpt>
      <trkpt lat="47.2243" lon="-2.17695">
        <ele>-2.75</ele>
        <time>2020-05-28T13:55:06Z</time>
      </trkpt>
      <trkpt lat="47.22305" lon="-2.17585">
        <ele>-2.75</ele>
        <time>2020-05-28T13:55:19Z</time>
      </trkpt>
      <trkpt lat="47.22273" lon="-2.17563">
        <ele>-2.75</ele>
        <time>2020-05-28T13:55:22Z</time>
      </trkpt>
      <trkpt lat="47.22147" lon="-2.17444">
        <ele>-2.27</ele>
        <time>2020-05-28T13:55:35Z</time>
      </trkpt>
      <trkpt lat="47.22046" lon="-2.17324">
        <ele>-1.79</ele>
        <time>2020-05-28T13:55:47Z</time>
      </trkpt>
      <trkpt lat="47.21911" lon="-2.17205">
        <ele>-1.3</ele>
        <time>2020-05-28T13:56:00Z</time>
      </trkpt>
      <trkpt lat="47.21901" lon="-2.17197">
        <ele>-1.3</ele>
        <time>2020-05-28T13:56:01Z</time>
      </trkpt>
      <trkpt lat="47.2186" lon="-2.17169">
        <ele>-1.3</ele>
        <time>2020-05-28T13:56:05Z</time>
      </trkpt>
      <trkpt lat="47.21807" lon="-2.17107">
        <ele>-1.3</ele>
        <time>2020-05-28T13:56:11Z</time>
      </trkpt>
      <trkpt lat="47.21741" lon="-2.17045">
        <ele>-0.82</ele>
        <time>2020-05-28T13:56:20Z</time>
      </trkpt>
      <trkpt lat="47.21711" lon="-2.17066">
        <ele>-1.79</ele>
        <time>2020-05-28T13:56:25Z</time>
      </trkpt>
      <trkpt lat="47.2172" lon="-2.17079">
        <ele>-3.23</ele>
        <time>2020-05-28T13:56:27Z</time>
      </trkpt>
      <trkpt lat="47.21733" lon="-2.17091">
        <ele>-3.71</ele>
        <time>2020-05-28T13:56:29Z</time>
      </trkpt>
      <trkpt lat="47.21742" lon="-2.17141">
        <ele>-4.67</ele>
        <time>2020-05-28T13:56:35Z</time>
      </trkpt>
      <trkpt lat="47.21748" lon="-2.1716">
        <ele>-4.67</ele>
        <time>2020-05-28T13:56:39Z</time>
      </trkpt>
      <trkpt lat="47.21752" lon="-2.17142">
        <ele>-4.67</ele>
        <time>2020-05-28T13:56:44Z</time>
      </trkpt>
      <trkpt lat="47.21743" lon="-2.17139">
        <ele>-4.19</ele>
        <time>2020-05-28T13:56:55Z</time>
      </trkpt>
      <trkpt lat="47.21741" lon="-2.17139">
        <ele>-4.19</ele>
        <time>2020-05-28T13:57:01Z</time>
      </trkpt>
      <trkpt lat="47.2173" lon="-2.17136">
        <ele>-4.19</ele>
        <time>2020-05-28T13:57:14Z</time>
      </trkpt>
      <trkpt lat="47.21695" lon="-2.17121">
        <ele>-4.19</ele>
        <time>2020-05-28T13:57:28Z</time>
      </trkpt>
      <trkpt lat="47.21662" lon="-2.17112">
        <ele>-4.19</ele>
        <time>2020-05-28T13:57:43Z</time>
      </trkpt>
      <trkpt lat="47.21649" lon="-2.17114">
        <ele>-3.71</ele>
        <time>2020-05-28T13:57:46Z</time>
      </trkpt>
      <trkpt lat="47.21622" lon="-2.17096">
        <ele>-3.71</ele>
        <time>2020-05-28T13:57:51Z</time>
      </trkpt>
      <trkpt lat="47.21615" lon="-2.17082">
        <ele>-3.71</ele>
        <time>2020-05-28T13:57:53Z</time>
      </trkpt>
      <trkpt lat="47.21598" lon="-2.17061">
        <ele>-3.23</ele>
        <time>2020-05-28T13:57:57Z</time>
      </trkpt>
      <trkpt lat="47.21545" lon="-2.17004">
        <ele>-3.23</ele>
        <time>2020-05-28T13:58:09Z</time>
      </trkpt>
      <trkpt lat="47.21507" lon="-2.16977">
        <ele>-3.23</ele>
        <time>2020-05-28T13:58:16Z</time>
      </trkpt>
      <trkpt lat="47.21484" lon="-2.16954">
        <ele>-3.23</ele>
        <time>2020-05-28T13:58:20Z</time>
      </trkpt>
      <trkpt lat="47.21468" lon="-2.16893">
        <ele>-3.71</ele>
        <time>2020-05-28T13:58:28Z</time>
      </trkpt>
      <trkpt lat="47.21493" lon="-2.16906">
        <ele>-3.23</ele>
        <time>2020-05-28T13:58:33Z</time>
      </trkpt>
      <trkpt lat="47.21546" lon="-2.16926">
        <ele>-3.23</ele>
        <time>2020-05-28T13:58:42Z</time>
      </trkpt>
      <trkpt lat="47.21608" lon="-2.16932">
        <ele>-2.27</ele>
        <time>2020-05-28T13:58:51Z</time>
      </trkpt>
      <trkpt lat="47.21694" lon="-2.16978">
        <ele>-0.82</ele>
        <time>2020-05-28T13:59:03Z</time>
      </trkpt>
      <trkpt lat="47.21735" lon="-2.17">
        <ele>-0.34</ele>
        <time>2020-05-28T13:59:09Z</time>
      </trkpt>
      <trkpt lat="47.21782" lon="-2.1705">
        <ele>-0.82</ele>
        <time>2020-05-28T13:59:16Z</time>
      </trkpt>
      <trkpt lat="47.21868" lon="-2.17178">
        <ele>-1.3</ele>
        <time>2020-05-28T13:59:27Z</time>
      </trkpt>
      <trkpt lat="47.21898" lon="-2.17215">
        <ele>-1.3</ele>
        <time>2020-05-28T13:59:30Z</time>
      </trkpt>
      <trkpt lat="47.21936" lon="-2.17266">
        <ele>-1.3</ele>
        <time>2020-05-28T13:59:34Z</time>
      </trkpt>
      <trkpt lat="47.22011" lon="-2.17403">
        <ele>-1.3</ele>
        <time>2020-05-28T13:59:44Z</time>
      </trkpt>
      <trkpt lat="47.22094" lon="-2.17513">
        <ele>-1.3</ele>
        <time>2020-05-28T13:59:53Z</time>
      </trkpt>
      <trkpt lat="47.22129" lon="-2.1752">
        <ele>-1.79</ele>
        <time>2020-05-28T13:59:57Z</time>
      </trkpt>
      <trkpt lat="47.22118" lon="-2.17493">
        <ele>-1.3</ele>
        <time>2020-05-28T14:00:01Z</time>
      </trkpt>
      <trkpt lat="47.22107" lon="-2.17483">
        <ele>-1.3</ele>
        <time>2020-05-28T14:00:03Z</time>
      </trkpt>
      <trkpt lat="47.22056" lon="-2.17425">
        <ele>-1.3</ele>
        <time>2020-05-28T14:00:13Z</time>
      </trkpt>
      <trkpt lat="47.22035" lon="-2.17408">
        <ele>-1.3</ele>
        <time>2020-05-28T14:00:17Z</time>
      </trkpt>
      <trkpt lat="47.22004" lon="-2.17381">
        <ele>-1.79</ele>
        <time>2020-05-28T14:00:22Z</time>
      </trkpt>
      <trkpt lat="47.21976" lon="-2.17335">
        <ele>-1.79</ele>
        <time>2020-05-28T14:00:27Z</time>
      </trkpt>
      <trkpt lat="47.21961" lon="-2.17306">
        <ele>-1.79</ele>
        <time>2020-05-28T14:00:30Z</time>
      </trkpt>
      <trkpt lat="47.2197" lon="-2.1728">
        <ele>-1.79</ele>
        <time>2020-05-28T14:00:35Z</time>
      </trkpt>
      <trkpt lat="47.21989" lon="-2.17301">
        <ele>-1.3</ele>
        <time>2020-05-28T14:00:39Z</time>
      </trkpt>
      <trkpt lat="47.22077" lon="-2.17342">
        <ele>-1.3</ele>
        <time>2020-05-28T14:00:51Z</time>
      </trkpt>
      <trkpt lat="47.22112" lon="-2.17365">
        <ele>-0.82</ele>
        <time>2020-05-28T14:00:55Z</time>
      </trkpt>
      <trkpt lat="47.22142" lon="-2.17398">
        <ele>-0.82</ele>
        <time>2020-05-28T14:00:59Z</time>
      </trkpt>
      <trkpt lat="47.22233" lon="-2.17474">
        <ele>0.14</ele>
        <time>2020-05-28T14:01:10Z</time>
      </trkpt>
      <trkpt lat="47.22303" lon="-2.17538">
        <ele>1.1</ele>
        <time>2020-05-28T14:01:20Z</time>
      </trkpt>
      <trkpt lat="47.22355" lon="-2.17564">
        <ele>1.58</ele>
        <time>2020-05-28T14:01:26Z</time>
      </trkpt>
      <trkpt lat="47.22472" lon="-2.1764">
        <ele>1.1</ele>
        <time>2020-05-28T14:01:38Z</time>
      </trkpt>
      <trkpt lat="47.22599" lon="-2.17723">
        <ele>1.58</ele>
        <time>2020-05-28T14:01:50Z</time>
      </trkpt>
      <trkpt lat="47.22696" lon="-2.1782">
        <ele>2.06</ele>
        <time>2020-05-28T14:02:02Z</time>
      </trkpt>
      <trkpt lat="47.22795" lon="-2.17923">
        <ele>1.58</ele>
        <time>2020-05-28T14:02:15Z</time>
      </trkpt>
      <trkpt lat="47.22917" lon="-2.1805">
        <ele>0.62</ele>
        <time>2020-05-28T14:02:30Z</time>
      </trkpt>
      <trkpt lat="47.22996" lon="-2.18102">
        <ele>0.14</ele>
        <time>2020-05-28T14:02:41Z</time>
      </trkpt>
      <trkpt lat="47.22999" lon="-2.18139">
        <ele>-0.34</ele>
        <time>2020-05-28T14:02:46Z</time>
      </trkpt>
      <trkpt lat="47.22976" lon="-2.18122">
        <ele>-0.34</ele>
        <time>2020-05-28T14:02:51Z</time>
      </trkpt>
      <trkpt lat="47.22946" lon="-2.18123">
        <ele>-0.82</ele>
        <time>2020-05-28T14:02:59Z</time>
      </trkpt>
      <trkpt lat="47.2294" lon="-2.1812">
        <ele>-0.82</ele>
        <time>2020-05-28T14:03:01Z</time>
      </trkpt>
      <trkpt lat="47.229" lon="-2.18075">
        <ele>-1.3</ele>
        <time>2020-05-28T14:03:18Z</time>
      </trkpt>
      <trkpt lat="47.22882" lon="-2.18054">
        <ele>-1.79</ele>
        <time>2020-05-28T14:03:32Z</time>
      </trkpt>
      <trkpt lat="47.22881" lon="-2.18054">
        <ele>-1.79</ele>
        <time>2020-05-28T14:03:44Z</time>
      </trkpt>
      <trkpt lat="47.22854" lon="-2.18051">
        <ele>-2.27</ele>
        <time>2020-05-28T14:03:58Z</time>
      </trkpt>
      <trkpt lat="47.22808" lon="-2.18026">
        <ele>-2.75</ele>
        <time>2020-05-28T14:04:14Z</time>
      </trkpt>
      <trkpt lat="47.22798" lon="-2.18043">
        <ele>-3.23</ele>
        <time>2020-05-28T14:04:19Z</time>
      </trkpt>
      <trkpt lat="47.22807" lon="-2.18049">
        <ele>-3.23</ele>
        <time>2020-05-28T14:04:21Z</time>
      </trkpt>
      <trkpt lat="47.22902" lon="-2.18107">
        <ele>-2.75</ele>
        <time>2020-05-28T14:04:39Z</time>
      </trkpt>
      <trkpt lat="47.22992" lon="-2.1816">
        <ele>-2.27</ele>
        <time>2020-05-28T14:04:50Z</time>
      </trkpt>
      <trkpt lat="47.2309" lon="-2.18211">
        <ele>-1.79</ele>
        <time>2020-05-28T14:05:02Z</time>
      </trkpt>
      <trkpt lat="47.23217" lon="-2.18284">
        <ele>-1.79</ele>
        <time>2020-05-28T14:05:16Z</time>
      </trkpt>
      <trkpt lat="47.23234" lon="-2.18293">
        <ele>-1.3</ele>
        <time>2020-05-28T14:05:18Z</time>
      </trkpt>
      <trkpt lat="47.23247" lon="-2.18325">
        <ele>-1.79</ele>
        <time>2020-05-28T14:05:24Z</time>
      </trkpt>
      <trkpt lat="47.23234" lon="-2.18315">
        <ele>-1.79</ele>
        <time>2020-05-28T14:05:28Z</time>
      </trkpt>
      <trkpt lat="47.23206" lon="-2.18299">
        <ele>-1.3</ele>
        <time>2020-05-28T14:05:36Z</time>
      </trkpt>
      <trkpt lat="47.23166" lon="-2.18253">
        <ele>-1.3</ele>
        <time>2020-05-28T14:05:50Z</time>
      </trkpt>
      <trkpt lat="47.23126" lon="-2.18236">
        <ele>-2.27</ele>
        <time>2020-05-28T14:06:09Z</time>
      </trkpt>
      <trkpt lat="47.23092" lon="-2.18222">
        <ele>-2.27</ele>
        <time>2020-05-28T14:06:28Z</time>
      </trkpt>
      <trkpt lat="47.23058" lon="-2.18217">
        <ele>-2.27</ele>
        <time>2020-05-28T14:06:54Z</time>
      </trkpt>
      <trkpt lat="47.22979" lon="-2.18188">
        <ele>-2.75</ele>
        <time>2020-05-28T14:07:19Z</time>
      </trkpt>
      <trkpt lat="47.22909" lon="-2.18144">
        <ele>-3.23</ele>
        <time>2020-05-28T14:07:34Z</time>
      </trkpt>
      <trkpt lat="47.22821" lon="-2.18084">
        <ele>-3.23</ele>
        <time>2020-05-28T14:07:51Z</time>
      </trkpt>
      <trkpt lat="47.22773" lon="-2.18015">
        <ele>-3.23</ele>
        <time>2020-05-28T14:08:01Z</time>
      </trkpt>
      <trkpt lat="47.22677" lon="-2.17904">
        <ele>-2.27</ele>
        <time>2020-05-28T14:08:16Z</time>
      </trkpt>
      <trkpt lat="47.2264" lon="-2.17863">
        <ele>-2.27</ele>
        <time>2020-05-28T14:08:20Z</time>
      </trkpt>
      <trkpt lat="47.22513" lon="-2.17749">
        <ele>-1.79</ele>
        <time>2020-05-28T14:08:32Z</time>
      </trkpt>
      <trkpt lat="47.22474" lon="-2.17709">
        <ele>-1.79</ele>
        <time>2020-05-28T14:08:36Z</time>
      </trkpt>
      <trkpt lat="47.22442" lon="-2.17684">
        <ele>-1.79</ele>
        <time>2020-05-28T14:08:39Z</time>
      </trkpt>
      <trkpt lat="47.2234" lon="-2.17613">
        <ele>-2.27</ele>
        <time>2020-05-28T14:08:48Z</time>
      </trkpt>
      <trkpt lat="47.22308" lon="-2.17579">
        <ele>-2.75</ele>
        <time>2020-05-28T14:08:51Z</time>
      </trkpt>
      <trkpt lat="47.22276" lon="-2.17553">
        <ele>-2.27</ele>
        <time>2020-05-28T14:08:54Z</time>
      </trkpt>
      <trkpt lat="47.2218" lon="-2.1748">
        <ele>-2.75</ele>
        <time>2020-05-28T14:09:05Z</time>
      </trkpt>
      <trkpt lat="47.22075" lon="-2.17362">
        <ele>-2.27</ele>
        <time>2020-05-28T14:09:20Z</time>
      </trkpt>
      <trkpt lat="47.21983" lon="-2.17235">
        <ele>-1.79</ele>
        <time>2020-05-28T14:09:33Z</time>
      </trkpt>
      <trkpt lat="47.21932" lon="-2.17193">
        <ele>-1.3</ele>
        <time>2020-05-28T14:09:39Z</time>
      </trkpt>
      <trkpt lat="47.21925" lon="-2.17163">
        <ele>-1.3</ele>
        <time>2020-05-28T14:09:44Z</time>
      </trkpt>
      <trkpt lat="47.21933" lon="-2.17172">
        <ele>-1.79</ele>
        <time>2020-05-28T14:09:46Z</time>
      </trkpt>
      <trkpt lat="47.21968" lon="-2.17211">
        <ele>-1.79</ele>
        <time>2020-05-28T14:09:57Z</time>
      </trkpt>
      <trkpt lat="47.22037" lon="-2.17275">
        <ele>-1.79</ele>
        <time>2020-05-28T14:10:16Z</time>
      </trkpt>
      <trkpt lat="47.22108" lon="-2.17339">
        <ele>-1.3</ele>
        <time>2020-05-28T14:10:30Z</time>
      </trkpt>
      <trkpt lat="47.22196" lon="-2.17426">
        <ele>-0.82</ele>
        <time>2020-05-28T14:10:42Z</time>
      </trkpt>
      <trkpt lat="47.22311" lon="-2.17521">
        <ele>-1.79</ele>
        <time>2020-05-28T14:10:56Z</time>
      </trkpt>
      <trkpt lat="47.22374" lon="-2.17576">
        <ele>-1.3</ele>
        <time>2020-05-28T14:11:04Z</time>
      </trkpt>
      <trkpt lat="47.22414" lon="-2.17604">
        <ele>-1.79</ele>
        <time>2020-05-28T14:11:09Z</time>
      </trkpt>
      <trkpt lat="47.22446" lon="-2.17634">
        <ele>-1.3</ele>
        <time>2020-05-28T14:11:14Z</time>
      </trkpt>
      <trkpt lat="47.22509" lon="-2.17666">
        <ele>-1.3</ele>
        <time>2020-05-28T14:11:24Z</time>
      </trkpt>
      <trkpt lat="47.22567" lon="-2.17722">
        <ele>-1.79</ele>
        <time>2020-05-28T14:11:37Z</time>
      </trkpt>
      <trkpt lat="47.22631" lon="-2.17761">
        <ele>-1.79</ele>
        <time>2020-05-28T14:11:49Z</time>
      </trkpt>
      <trkpt lat="47.22741" lon="-2.1786">
        <ele>-1.79</ele>
        <time>2020-05-28T14:12:07Z</time>
      </trkpt>
      <trkpt lat="47.22846" lon="-2.17954">
        <ele>-2.27</ele>
        <time>2020-05-28T14:12:23Z</time>
      </trkpt>
      <trkpt lat="47.22949" lon="-2.1805">
        <ele>-2.27</ele>
        <time>2020-05-28T14:12:39Z</time>
      </trkpt>
      <trkpt lat="47.22959" lon="-2.1811">
        <ele>-2.27</ele>
        <time>2020-05-28T14:12:45Z</time>
      </trkpt>
      <trkpt lat="47.22929" lon="-2.18124">
        <ele>-2.27</ele>
        <time>2020-05-28T14:12:50Z</time>
      </trkpt>
      <trkpt lat="47.2286" lon="-2.18093">
        <ele>-2.75</ele>
        <time>2020-05-28T14:13:00Z</time>
      </trkpt>
      <trkpt lat="47.22832" lon="-2.18068">
        <ele>-2.75</ele>
        <time>2020-05-28T14:13:04Z</time>
      </trkpt>
      <trkpt lat="47.22748" lon="-2.17949">
        <ele>-2.27</ele>
        <time>2020-05-28T14:13:19Z</time>
      </trkpt>
      <trkpt lat="47.2267" lon="-2.17885">
        <ele>-1.79</ele>
        <time>2020-05-28T14:13:29Z</time>
      </trkpt>
      <trkpt lat="47.22537" lon="-2.17777">
        <ele>-1.79</ele>
        <time>2020-05-28T14:13:43Z</time>
      </trkpt>
      <trkpt lat="47.2247" lon="-2.17706">
        <ele>-1.79</ele>
        <time>2020-05-28T14:13:50Z</time>
      </trkpt>
      <trkpt lat="47.22435" lon="-2.17673">
        <ele>-1.79</ele>
        <time>2020-05-28T14:13:54Z</time>
      </trkpt>
      <trkpt lat="47.22391" lon="-2.1765">
        <ele>-1.79</ele>
        <time>2020-05-28T14:13:59Z</time>
      </trkpt>
      <trkpt lat="47.22289" lon="-2.17574">
        <ele>-2.27</ele>
        <time>2020-05-28T14:14:12Z</time>
      </trkpt>
      <trkpt lat="47.22291" lon="-2.17537">
        <ele>-2.27</ele>
        <time>2020-05-28T14:14:17Z</time>
      </trkpt>
      <trkpt lat="47.22307" lon="-2.17544">
        <ele>-2.27</ele>
        <time>2020-05-28T14:14:20Z</time>
      </trkpt>
      <trkpt lat="47.22323" lon="-2.17552">
        <ele>-2.27</ele>
        <time>2020-05-28T14:14:23Z</time>
      </trkpt>
      <trkpt lat="47.22356" lon="-2.17545">
        <ele>-1.79</ele>
        <time>2020-05-28T14:14:30Z</time>
      </trkpt>
      <trkpt lat="47.22416" lon="-2.17557">
        <ele>-1.3</ele>
        <time>2020-05-28T14:14:43Z</time>
      </trkpt>
      <trkpt lat="47.22447" lon="-2.17585">
        <ele>-1.3</ele>
        <time>2020-05-28T14:14:57Z</time>
      </trkpt>
      <trkpt lat="47.22457" lon="-2.17658">
        <ele>-1.3</ele>
        <time>2020-05-28T14:15:15Z</time>
      </trkpt>
      <trkpt lat="47.22487" lon="-2.17769">
        <ele>-2.27</ele>
        <time>2020-05-28T14:15:40Z</time>
      </trkpt>
      <trkpt lat="47.22483" lon="-2.17824">
        <ele>-3.23</ele>
        <time>2020-05-28T14:15:53Z</time>
      </trkpt>
      <trkpt lat="47.22491" lon="-2.17857">
        <ele>-3.71</ele>
        <time>2020-05-28T14:16:13Z</time>
      </trkpt>
      <trkpt lat="47.22505" lon="-2.17907">
        <ele>-3.23</ele>
        <time>2020-05-28T14:16:33Z</time>
      </trkpt>
      <trkpt lat="47.22516" lon="-2.17925">
        <ele>-3.71</ele>
        <time>2020-05-28T14:16:38Z</time>
      </trkpt>
      <trkpt lat="47.22543" lon="-2.17937">
        <ele>-3.71</ele>
        <time>2020-05-28T14:16:45Z</time>
      </trkpt>
      <trkpt lat="47.22555" lon="-2.17936">
        <ele>-3.71</ele>
        <time>2020-05-28T14:16:48Z</time>
      </trkpt>
      <trkpt lat="47.22574" lon="-2.17929">
        <ele>-3.23</ele>
        <time>2020-05-28T14:16:52Z</time>
      </trkpt>
      <trkpt lat="47.22595" lon="-2.17926">
        <ele>-3.23</ele>
        <time>2020-05-28T14:16:56Z</time>
      </trkpt>
      <trkpt lat="47.22622" lon="-2.17938">
        <ele>-3.71</ele>
        <time>2020-05-28T14:17:01Z</time>
      </trkpt>
      <trkpt lat="47.22679" lon="-2.18005">
        <ele>-3.71</ele>
        <time>2020-05-28T14:17:12Z</time>
      </trkpt>
      <trkpt lat="47.22724" lon="-2.18062">
        <ele>-3.71</ele>
        <time>2020-05-28T14:17:23Z</time>
      </trkpt>
      <trkpt lat="47.2273" lon="-2.18083">
        <ele>-4.19</ele>
        <time>2020-05-28T14:17:27Z</time>
      </trkpt>
      <trkpt lat="47.22732" lon="-2.18105">
        <ele>-4.19</ele>
        <time>2020-05-28T14:17:31Z</time>
      </trkpt>
      <trkpt lat="47.22767" lon="-2.18131">
        <ele>-5.15</ele>
        <time>2020-05-28T14:17:42Z</time>
      </trkpt>
      <trkpt lat="47.22794" lon="-2.1813">
        <ele>-5.15</ele>
        <time>2020-05-28T14:17:48Z</time>
      </trkpt>
      <trkpt lat="47.22807" lon="-2.18125">
        <ele>-4.67</ele>
        <time>2020-05-28T14:17:51Z</time>
      </trkpt>
      <trkpt lat="47.22849" lon="-2.18127">
        <ele>-4.19</ele>
        <time>2020-05-28T14:18:02Z</time>
      </trkpt>
      <trkpt lat="47.2293" lon="-2.18178">
        <ele>-5.15</ele>
        <time>2020-05-28T14:18:16Z</time>
      </trkpt>
      <trkpt lat="47.22944" lon="-2.18185">
        <ele>-5.15</ele>
        <time>2020-05-28T14:18:18Z</time>
      </trkpt>
      <trkpt lat="47.22966" lon="-2.18207">
        <ele>-5.63</ele>
        <time>2020-05-28T14:18:22Z</time>
      </trkpt>
      <trkpt lat="47.23032" lon="-2.18238">
        <ele>-5.63</ele>
        <time>2020-05-28T14:18:33Z</time>
      </trkpt>
      <trkpt lat="47.2306" lon="-2.18282">
        <ele>-5.63</ele>
        <time>2020-05-28T14:18:40Z</time>
      </trkpt>
      <trkpt lat="47.23072" lon="-2.18287">
        <ele>-5.63</ele>
        <time>2020-05-28T14:18:42Z</time>
      </trkpt>
      <trkpt lat="47.23103" lon="-2.18287">
        <ele>-5.63</ele>
        <time>2020-05-28T14:18:47Z</time>
      </trkpt>
      <trkpt lat="47.23149" lon="-2.18307">
        <ele>-5.63</ele>
        <time>2020-05-28T14:18:55Z</time>
      </trkpt>
      <trkpt lat="47.23239" lon="-2.18369">
        <ele>-5.63</ele>
        <time>2020-05-28T14:19:08Z</time>
      </trkpt>
      <trkpt lat="47.23337" lon="-2.18427">
        <ele>-6.11</ele>
        <time>2020-05-28T14:19:22Z</time>
      </trkpt>
      <trkpt lat="47.23344" lon="-2.18429">
        <ele>-6.11</ele>
        <time>2020-05-28T14:19:23Z</time>
      </trkpt>
      <trkpt lat="47.23355" lon="-2.18414">
        <ele>-6.11</ele>
        <time>2020-05-28T14:19:28Z</time>
      </trkpt>
      <trkpt lat="47.23335" lon="-2.18426">
        <ele>-6.11</ele>
        <time>2020-05-28T14:19:33Z</time>
      </trkpt>
      <trkpt lat="47.23323" lon="-2.18419">
        <ele>-6.11</ele>
        <time>2020-05-28T14:19:36Z</time>
      </trkpt>
      <trkpt lat="47.23273" lon="-2.1839">
        <ele>-5.63</ele>
        <time>2020-05-28T14:19:55Z</time>
      </trkpt>
      <trkpt lat="47.2325" lon="-2.18375">
        <ele>-4.67</ele>
        <time>2020-05-28T14:20:16Z</time>
      </trkpt>
      <trkpt lat="47.23243" lon="-2.18372">
        <ele>-5.15</ele>
        <time>2020-05-28T14:20:38Z</time>
      </trkpt>
      <trkpt lat="47.23208" lon="-2.18348">
        <ele>-4.67</ele>
        <time>2020-05-28T14:20:58Z</time>
      </trkpt>
      <trkpt lat="47.23173" lon="-2.18327">
        <ele>-4.19</ele>
        <time>2020-05-28T14:21:20Z</time>
      </trkpt>
      <trkpt lat="47.23133" lon="-2.18299">
        <ele>-4.19</ele>
        <time>2020-05-28T14:21:41Z</time>
      </trkpt>
      <trkpt lat="47.23106" lon="-2.1828">
        <ele>-4.67</ele>
        <time>2020-05-28T14:21:48Z</time>
      </trkpt>
      <trkpt lat="47.23039" lon="-2.18219">
        <ele>-4.19</ele>
        <time>2020-05-28T14:22:02Z</time>
      </trkpt>
      <trkpt lat="47.23013" lon="-2.18193">
        <ele>-4.19</ele>
        <time>2020-05-28T14:22:06Z</time>
      </trkpt>
      <trkpt lat="47.22978" lon="-2.18175">
        <ele>-4.19</ele>
        <time>2020-05-28T14:22:10Z</time>
      </trkpt>
      <trkpt lat="47.22919" lon="-2.18125">
        <ele>-3.71</ele>
        <time>2020-05-28T14:22:16Z</time>
      </trkpt>
      <trkpt lat="47.22826" lon="-2.18049">
        <ele>-3.23</ele>
        <time>2020-05-28T14:22:27Z</time>
      </trkpt>
      <trkpt lat="47.22713" lon="-2.17948">
        <ele>-2.75</ele>
        <time>2020-05-28T14:22:40Z</time>
      </trkpt>
      <trkpt lat="47.22596" lon="-2.17839">
        <ele>-2.27</ele>
        <time>2020-05-28T14:22:53Z</time>
      </trkpt>
      <trkpt lat="47.22483" lon="-2.17729">
        <ele>-1.79</ele>
        <time>2020-05-28T14:23:06Z</time>
      </trkpt>
      <trkpt lat="47.22376" lon="-2.1763">
        <ele>-1.3</ele>
        <time>2020-05-28T14:23:20Z</time>
      </trkpt>
      <trkpt lat="47.2237" lon="-2.17583">
        <ele>-0.82</ele>
        <time>2020-05-28T14:23:25Z</time>
      </trkpt>
      <trkpt lat="47.22376" lon="-2.17584">
        <ele>-1.3</ele>
        <time>2020-05-28T14:23:26Z</time>
      </trkpt>
      <trkpt lat="47.2249" lon="-2.17649">
        <ele>-2.75</ele>
        <time>2020-05-28T14:23:43Z</time>
      </trkpt>
      <trkpt lat="47.22598" lon="-2.17726">
        <ele>-3.23</ele>
        <time>2020-05-28T14:23:59Z</time>
      </trkpt>
      <trkpt lat="47.22693" lon="-2.17826">
        <ele>-3.23</ele>
        <time>2020-05-28T14:24:11Z</time>
      </trkpt>
      <trkpt lat="47.22742" lon="-2.17877">
        <ele>-3.23</ele>
        <time>2020-05-28T14:24:17Z</time>
      </trkpt>
      <trkpt lat="47.22776" lon="-2.17865">
        <ele>-3.23</ele>
        <time>2020-05-28T14:24:22Z</time>
      </trkpt>
      <trkpt lat="47.22762" lon="-2.17845">
        <ele>-3.23</ele>
        <time>2020-05-28T14:24:25Z</time>
      </trkpt>
      <trkpt lat="47.22673" lon="-2.17763">
        <ele>-2.75</ele>
        <time>2020-05-28T14:24:37Z</time>
      </trkpt>
      <trkpt lat="47.22588" lon="-2.17711">
        <ele>-2.75</ele>
        <time>2020-05-28T14:24:46Z</time>
      </trkpt>
      <trkpt lat="47.22496" lon="-2.17642">
        <ele>-1.79</ele>
        <time>2020-05-28T14:24:55Z</time>
      </trkpt>
      <trkpt lat="47.22378" lon="-2.17553">
        <ele>-1.3</ele>
        <time>2020-05-28T14:25:08Z</time>
      </trkpt>
      <trkpt lat="47.22306" lon="-2.17519">
        <ele>-0.34</ele>
        <time>2020-05-28T14:25:18Z</time>
      </trkpt>
      <trkpt lat="47.22251" lon="-2.17491">
        <ele>-0.34</ele>
        <time>2020-05-28T14:25:31Z</time>
      </trkpt>
      <trkpt lat="47.22219" lon="-2.17461">
        <ele>-0.82</ele>
        <time>2020-05-28T14:25:48Z</time>
      </trkpt>
      <trkpt lat="47.22205" lon="-2.1745">
        <ele>-0.82</ele>
        <time>2020-05-28T14:26:03Z</time>
      </trkpt>
      <trkpt lat="47.22164" lon="-2.17418">
        <ele>-0.82</ele>
        <time>2020-05-28T14:26:21Z</time>
      </trkpt>
      <trkpt lat="47.22134" lon="-2.17404">
        <ele>-0.82</ele>
        <time>2020-05-28T14:26:39Z</time>
      </trkpt>
      <trkpt lat="47.2208" lon="-2.17348">
        <ele>-1.79</ele>
        <time>2020-05-28T14:27:00Z</time>
      </trkpt>
      <trkpt lat="47.22015" lon="-2.17281">
        <ele>-1.79</ele>
        <time>2020-05-28T14:27:21Z</time>
      </trkpt>
      <trkpt lat="47.21938" lon="-2.17222">
        <ele>-1.79</ele>
        <time>2020-05-28T14:27:36Z</time>
      </trkpt>
      <trkpt lat="47.21839" lon="-2.17136">
        <ele>-1.79</ele>
        <time>2020-05-28T14:27:50Z</time>
      </trkpt>
      <trkpt lat="47.21726" lon="-2.17023">
        <ele>-1.79</ele>
        <time>2020-05-28T14:28:05Z</time>
      </trkpt>
      <trkpt lat="47.21697" lon="-2.16998">
        <ele>-1.79</ele>
        <time>2020-05-28T14:28:09Z</time>
      </trkpt>
      <trkpt lat="47.21586" lon="-2.16931">
        <ele>-2.27</ele>
        <time>2020-05-28T14:28:21Z</time>
      </trkpt>
      <trkpt lat="47.21576" lon="-2.16927">
        <ele>-2.27</ele>
        <time>2020-05-28T14:28:22Z</time>
      </trkpt>
      <trkpt lat="47.21552" lon="-2.16884">
        <ele>-1.79</ele>
        <time>2020-05-28T14:28:27Z</time>
      </trkpt>
      <trkpt lat="47.21581" lon="-2.16883">
        <ele>-1.79</ele>
        <time>2020-05-28T14:28:32Z</time>
      </trkpt>
      <trkpt lat="47.21609" lon="-2.16905">
        <ele>-1.79</ele>
        <time>2020-05-28T14:28:37Z</time>
      </trkpt>
      <trkpt lat="47.2163" lon="-2.16911">
        <ele>-2.27</ele>
        <time>2020-05-28T14:28:41Z</time>
      </trkpt>
      <trkpt lat="47.21642" lon="-2.16912">
        <ele>-1.79</ele>
        <time>2020-05-28T14:28:43Z</time>
      </trkpt>
      <trkpt lat="47.21671" lon="-2.16926">
        <ele>-1.79</ele>
        <time>2020-05-28T14:28:48Z</time>
      </trkpt>
      <trkpt lat="47.21765" lon="-2.1703">
        <ele>-1.79</ele>
        <time>2020-05-28T14:29:06Z</time>
      </trkpt>
      <trkpt lat="47.21788" lon="-2.17078">
        <ele>-1.79</ele>
        <time>2020-05-28T14:29:13Z</time>
      </trkpt>
      <trkpt lat="47.21857" lon="-2.17155">
        <ele>-2.75</ele>
        <time>2020-05-28T14:29:31Z</time>
      </trkpt>
      <trkpt lat="47.21898" lon="-2.17187">
        <ele>-2.27</ele>
        <time>2020-05-28T14:29:40Z</time>
      </trkpt>
      <trkpt lat="47.21984" lon="-2.17239">
        <ele>-2.27</ele>
        <time>2020-05-28T14:29:56Z</time>
      </trkpt>
      <trkpt lat="47.22076" lon="-2.17337">
        <ele>-2.27</ele>
        <time>2020-05-28T14:30:12Z</time>
      </trkpt>
      <trkpt lat="47.22097" lon="-2.1737">
        <ele>-2.27</ele>
        <time>2020-05-28T14:30:16Z</time>
      </trkpt>
      <trkpt lat="47.2218" lon="-2.17447">
        <ele>-2.75</ele>
        <time>2020-05-28T14:30:27Z</time>
      </trkpt>
      <trkpt lat="47.22303" lon="-2.17519">
        <ele>-2.27</ele>
        <time>2020-05-28T14:30:39Z</time>
      </trkpt>
      <trkpt lat="47.22393" lon="-2.17602">
        <ele>-2.27</ele>
        <time>2020-05-28T14:30:50Z</time>
      </trkpt>
      <trkpt lat="47.22503" lon="-2.17705">
        <ele>-3.23</ele>
        <time>2020-05-28T14:31:04Z</time>
      </trkpt>
      <trkpt lat="47.22617" lon="-2.1777">
        <ele>-3.23</ele>
        <time>2020-05-28T14:31:16Z</time>
      </trkpt>
      <trkpt lat="47.22668" lon="-2.17817">
        <ele>-3.23</ele>
        <time>2020-05-28T14:31:21Z</time>
      </trkpt>
      <trkpt lat="47.22729" lon="-2.17853">
        <ele>-3.23</ele>
        <time>2020-05-28T14:31:26Z</time>
      </trkpt>
      <trkpt lat="47.22769" lon="-2.17894">
        <ele>-3.23</ele>
        <time>2020-05-28T14:31:30Z</time>
      </trkpt>
      <trkpt lat="47.22879" lon="-2.18">
        <ele>-3.71</ele>
        <time>2020-05-28T14:31:42Z</time>
      </trkpt>
      <trkpt lat="47.23022" lon="-2.181">
        <ele>-4.19</ele>
        <time>2020-05-28T14:31:58Z</time>
      </trkpt>
      <trkpt lat="47.23098" lon="-2.18152">
        <ele>-4.67</ele>
        <time>2020-05-28T14:32:05Z</time>
      </trkpt>
      <trkpt lat="47.2312" lon="-2.1817">
        <ele>-4.67</ele>
        <time>2020-05-28T14:32:07Z</time>
      </trkpt>
      <trkpt lat="47.23152" lon="-2.18159">
        <ele>-4.67</ele>
        <time>2020-05-28T14:32:11Z</time>
      </trkpt>
      <trkpt lat="47.23166" lon="-2.18131">
        <ele>-4.67</ele>
        <time>2020-05-28T14:32:16Z</time>
      </trkpt>
      <trkpt lat="47.23184" lon="-2.18118">
        <ele>-4.67</ele>
        <time>2020-05-28T14:32:23Z</time>
      </trkpt>
      <trkpt lat="47.23185" lon="-2.18113">
        <ele>-3.23</ele>
        <time>2020-05-28T14:32:37Z</time>
      </trkpt>
      <trkpt lat="47.23185" lon="-2.18113">
        <ele>-2.27</ele>
        <time>2020-05-28T14:32:59Z</time>
      </trkpt>
    </trkseg>
  </trk>
</gpx>